Time;durP1;ratioP1;P1;durP2;ratioP2;P2;SDS_P1;SDS_P2;PMS_P1;PMS_P2;Temp;Humidity;BMP_temperature;BMP_pressure;BME280_temperature;BME280_humidity;BME280_pressure;Samples;Min_cycle;Max_cycle;Signal;HPM_P1;HPM_P2
2022/09/18 00:00:59;;;;;;;5.13;1.90;;;;;;;10.38;82.08;99937.81;5101365;28;21207;-65
2022/09/18 00:03:27;;;;;;;9.63;1.80;;;;;;;10.30;81.88;99935.84;5118344;28;20519;-65
2022/09/18 00:05:54;;;;;;;11.50;2.33;;;;;;;10.29;82.43;99933.31;5122649;28;20497;-66
2022/09/18 00:08:21;;;;;;;2.07;1.00;;;;;;;10.27;82.25;99929.94;5102911;28;20467;-66
2022/09/18 00:10:47;;;;;;;11.77;1.77;;;;;;;10.36;82.14;99929.97;5111209;28;20505;-66
2022/09/18 00:13:15;;;;;;;9.10;3.07;;;;;;;10.30;82.02;99924.31;5122617;28;20430;-65
2022/09/18 00:15:41;;;;;;;6.40;1.33;;;;;;;10.20;82.25;99926.19;5116271;28;20475;-65
2022/09/18 00:18:08;;;;;;;4.90;1.77;;;;;;;10.26;82.41;99938.94;5101091;28;20499;-65
2022/09/18 00:20:37;;;;;;;8.83;1.77;;;;;;;10.13;82.71;99928.59;5100955;28;20494;-65
2022/09/18 00:23:03;;;;;;;4.00;1.67;;;;;;;10.11;82.62;99933.25;5100987;28;20475;-65
2022/09/18 00:25:31;;;;;;;6.57;1.10;;;;;;;10.16;82.02;99934.47;5102179;28;20494;-63
2022/09/18 00:27:58;;;;;;;6.00;1.17;;;;;;;10.06;82.00;99935.50;5102418;28;21112;-65
2022/09/18 00:30:25;;;;;;;10.27;1.47;;;;;;;10.07;82.44;99931.81;5105833;28;20485;-65
2022/09/18 00:32:51;;;;;;;4.97;1.60;;;;;;;10.03;82.09;99928.59;5119470;28;20431;-64
2022/09/18 00:35:18;;;;;;;8.70;2.10;;;;;;;10.07;81.91;99927.34;5101517;28;20439;-64
2022/09/18 00:37:46;;;;;;;4.60;0.93;;;;;;;9.99;82.00;99940.56;5101754;28;20444;-64
2022/09/18 00:40:14;;;;;;;8.77;2.33;;;;;;;10.11;81.56;99933.25;5101110;28;20473;-63
2022/09/18 00:42:41;;;;;;;8.03;1.20;;;;;;;10.09;81.85;99930.72;5102302;28;20541;-65
2022/09/18 00:45:09;;;;;;;4.70;1.27;;;;;;;10.11;81.75;99936.75;5105809;28;20514;-64
2022/09/18 00:47:39;;;;;;;4.00;1.50;;;;;;;10.02;82.05;99934.94;5100886;28;20443;-64
2022/09/18 00:50:11;;;;;;;10.53;1.67;;;;;;;10.05;82.36;99941.81;5114117;28;20462;-65
2022/09/18 00:52:48;;;;;;;6.20;2.00;;;;;;;9.96;83.15;99939.06;5119937;28;20438;-64
2022/09/18 00:55:17;;;;;;;8.73;1.77;;;;;;;9.95;82.96;99934.69;5101227;28;20419;-64
2022/09/18 00:57:47;;;;;;;7.87;1.50;;;;;;;9.96;83.33;99941.72;5102732;28;20518;-64
2022/09/18 01:00:15;;;;;;;4.97;1.50;;;;;;;9.87;83.92;99942.56;5101732;28;20478;-64
2022/09/18 01:02:43;;;;;;;3.73;1.30;;;;;;;9.97;83.40;99951.41;5096259;28;20933;-64
2022/09/18 01:05:12;;;;;;;3.80;1.50;;;;;;;9.86;84.07;99948.03;5116545;28;20434;-63
2022/09/18 01:08:02;;;;;;;5.17;1.63;;;;;;;9.93;84.47;99958.03;5122030;28;20426;-63
2022/09/18 01:10:40;;;;;;;5.63;1.40;;;;;;;9.91;84.18;99953.81;5099393;28;20711;-65
2022/09/18 01:13:11;;;;;;;6.60;2.00;;;;;;;9.85;84.29;99959.72;5073571;28;20462;-64
2022/09/18 01:15:44;;;;;;;8.03;1.90;;;;;;;9.73;84.84;99953.69;5112670;28;20463;-65
2022/09/18 01:18:18;;;;;;;6.47;1.60;;;;;;;9.69;85.29;99960.31;5100537;28;20467;-65
2022/09/18 01:20:55;;;;;;;5.73;1.33;;;;;;;9.68;85.62;99955.94;5100087;28;20498;-63
2022/09/18 01:23:52;;;;;;;6.93;1.47;;;;;;;9.77;85.67;99958.63;5100983;28;21276;-63
2022/09/18 01:26:31;;;;;;;4.40;1.67;;;;;;;9.74;86.04;99960.72;5090933;28;20478;-63
2022/09/18 01:29:05;;;;;;;12.80;2.10;;;;;;;9.85;86.08;99960.56;5101167;28;20427;-63
2022/09/18 01:31:37;;;;;;;4.33;1.23;;;;;;;9.81;85.64;99956.50;5107610;28;20473;-62
2022/09/18 01:34:08;;;;;;;6.53;1.73;;;;;;;9.79;86.37;99953.97;5120921;28;20453;-63
2022/09/18 01:36:36;;;;;;;8.00;1.70;;;;;;;9.91;85.90;99956.47;5120334;28;20493;-63
2022/09/18 01:39:06;;;;;;;3.60;1.67;;;;;;;9.80;86.02;99955.66;5120614;28;20466;-63
2022/09/18 01:41:34;;;;;;;8.73;2.43;;;;;;;9.86;86.27;99953.38;5100333;28;20997;-63
2022/09/18 01:44:07;;;;;;;6.03;2.90;;;;;;;9.78;86.89;99940.78;5120872;28;20493;-63
2022/09/18 01:46:34;;;;;;;10.80;1.93;;;;;;;9.86;86.71;99951.59;5117307;28;20483;-64
2022/09/18 01:49:04;;;;;;;5.90;1.93;;;;;;;9.96;86.45;99955.06;5100627;28;20427;-63
2022/09/18 01:51:35;;;;;;;4.10;2.33;;;;;;;9.90;86.29;99949.47;5099619;28;21031;-63
2022/09/18 01:54:05;;;;;;;10.10;2.07;;;;;;;9.98;86.28;99949.56;5121016;28;20487;-63
2022/09/18 01:56:34;;;;;;;6.53;3.13;;;;;;;9.88;86.70;99946.94;5103524;28;20559;-63
2022/09/18 01:59:08;;;;;;;13.67;2.47;;;;;;;9.86;87.04;99958.72;5080233;28;20529;-63
2022/09/18 02:01:36;;;;;;;8.07;2.07;;;;;;;9.80;87.01;99944.13;5098496;28;20504;-63
2022/09/18 02:04:06;;;;;;;14.13;1.83;;;;;;;9.79;86.89;99945.09;5120749;28;21023;-63
2022/09/18 02:06:39;;;;;;;7.27;2.03;;;;;;;9.71;87.74;99945.84;5109801;28;20482;-63
2022/09/18 02:09:09;;;;;;;8.70;2.00;;;;;;;9.78;87.89;99941.59;5120574;28;20454;-63
2022/09/18 02:11:37;;;;;;;7.70;2.40;;;;;;;9.76;87.92;99937.41;5117563;28;20482;-63
2022/09/18 02:14:11;;;;;;;4.33;1.60;;;;;;;9.73;88.04;99941.19;5120703;28;20549;-62
2022/09/18 02:16:43;;;;;;;4.13;2.17;;;;;;;9.72;87.68;99949.34;5106126;28;20563;-64
2022/09/18 02:19:14;;;;;;;16.50;3.10;;;;;;;9.69;88.46;99946.97;5099307;28;20499;-64
2022/09/18 02:21:41;;;;;;;12.23;2.67;;;;;;;9.70;88.92;99944.13;5104519;28;20575;-64
2022/09/18 02:24:10;;;;;;;11.03;2.57;;;;;;;9.80;88.41;99949.47;5120611;28;20452;-64
2022/09/18 02:26:40;;;;;;;9.07;2.40;;;;;;;9.79;88.49;99945.97;5119346;27;20504;-63
2022/09/18 02:29:11;;;;;;;6.20;2.07;;;;;;;9.77;88.78;99947.06;5120676;28;20438;-64
2022/09/18 02:31:37;;;;;;;5.60;2.50;;;;;;;9.96;88.17;99943.53;5118756;28;20842;-63
2022/09/18 02:34:05;;;;;;;7.80;2.17;;;;;;;9.87;88.43;99939.06;5114344;28;20435;-62
2022/09/18 02:36:42;;;;;;;7.57;2.50;;;;;;;9.88;88.16;99938.94;5099255;28;20505;-62
2022/09/18 02:39:23;;;;;;;10.57;2.07;;;;;;;9.92;88.04;99942.16;5100062;28;20462;-62
2022/09/18 02:41:57;;;;;;;5.63;1.70;;;;;;;9.99;87.92;99945.91;5099150;28;20498;-63
2022/09/18 02:44:31;;;;;;;9.90;2.10;;;;;;;10.06;88.14;99939.00;5100023;28;21015;-63
2022/09/18 02:47:04;;;;;;;9.33;2.20;;;;;;;10.12;87.64;99943.78;5109905;28;20500;-62
2022/09/18 02:49:39;;;;;;;9.33;2.30;;;;;;;10.06;87.74;99940.84;5119512;28;20446;-63
2022/09/18 02:52:08;;;;;;;13.77;3.00;;;;;;;10.12;87.63;99938.44;5100138;28;20519;-63
2022/09/18 02:54:40;;;;;;;8.63;2.60;;;;;;;9.99;87.49;99937.91;5090719;28;20440;-64
2022/09/18 02:57:10;;;;;;;9.10;2.20;;;;;;;10.08;87.49;99930.84;5087305;28;20502;-64
2022/09/18 02:59:40;;;;;;;4.23;2.10;;;;;;;10.02;87.88;99926.94;5096552;28;20490;-63
2022/09/18 03:02:07;;;;;;;6.20;2.27;;;;;;;9.91;88.09;99935.09;5117975;28;21013;-63
2022/09/18 03:04:33;;;;;;;10.53;2.77;;;;;;;9.93;88.60;99919.78;5106242;28;20443;-63
2022/09/18 03:07:00;;;;;;;11.37;2.93;;;;;;;9.92;89.07;99924.28;5098986;28;20474;-63
2022/09/18 03:09:28;;;;;;;6.53;2.33;;;;;;;9.93;88.95;99920.63;5106566;28;20458;-63
2022/09/18 03:11:55;;;;;;;4.33;2.20;;;;;;;9.90;89.10;99915.59;5105421;28;20978;-63
2022/09/18 03:14:22;;;;;;;8.27;2.80;;;;;;;9.99;88.78;99911.19;5098173;28;20431;-63
2022/09/18 03:16:50;;;;;;;11.20;2.70;;;;;;;9.99;89.07;99912.03;5090935;28;20503;-63
2022/09/18 03:19:17;;;;;;;7.33;2.27;;;;;;;10.10;88.83;99911.03;5103042;28;20471;-63
2022/09/18 03:21:44;;;;;;;6.40;3.33;;;;;;;10.01;88.76;99911.91;5103273;28;20534;-63
2022/09/18 03:24:11;;;;;;;9.70;3.30;;;;;;;10.13;88.99;99916.06;5105659;28;20446;-63
2022/09/18 03:26:38;;;;;;;9.40;2.80;;;;;;;10.21;88.29;99927.84;5101966;28;20474;-63
2022/09/18 03:29:07;;;;;;;7.23;2.97;;;;;;;10.17;88.73;99920.16;5104580;28;20435;-63
2022/09/18 03:31:34;;;;;;;8.53;2.67;;;;;;;10.25;88.36;99926.59;5101647;28;20483;-63
2022/09/18 03:34:02;;;;;;;10.70;2.77;;;;;;;10.16;88.97;99918.44;5123534;28;20419;-63
2022/09/18 03:36:28;;;;;;;6.67;2.70;;;;;;;10.24;88.84;99925.75;5114121;28;20540;-63
2022/09/18 03:38:55;;;;;;;8.67;2.40;;;;;;;10.24;88.64;99925.75;5103300;28;20474;-63
2022/09/18 03:41:22;;;;;;;6.97;2.17;;;;;;;10.24;88.08;99925.75;5108260;28;20594;-63
2022/09/18 03:43:50;;;;;;;11.60;2.33;;;;;;;10.21;88.75;99931.38;5104496;28;20479;-62
2022/09/18 03:46:21;;;;;;;7.50;2.80;;;;;;;10.12;88.98;99930.44;5102152;28;20466;-63
2022/09/18 03:48:47;;;;;;;7.90;2.70;;;;;;;10.17;88.56;99925.50;5103094;28;20431;-63
2022/09/18 03:51:16;;;;;;;9.70;2.40;;;;;;;10.22;88.87;99940.22;5115248;28;20469;-62
2022/09/18 03:53:44;;;;;;;9.40;3.10;;;;;;;10.26;88.31;99934.47;5123419;28;20961;-64
2022/09/18 03:56:11;;;;;;;8.33;2.50;;;;;;;10.23;88.62;99921.38;5107261;28;20455;-63
2022/09/18 03:58:38;;;;;;;7.10;3.17;;;;;;;10.28;87.94;99927.13;5099512;28;20472;-63
2022/09/18 04:01:05;;;;;;;9.83;2.60;;;;;;;10.23;88.12;99923.22;5113189;28;20478;-63
2022/09/18 04:03:32;;;;;;;9.20;2.10;;;;;;;10.22;88.64;99921.53;5123509;28;20446;-63
2022/09/18 04:05:59;;;;;;;7.83;2.70;;;;;;;10.36;88.34;99923.75;5110621;28;20466;-62
2022/09/18 04:08:27;;;;;;;9.37;2.97;;;;;;;10.26;88.41;99922.91;5102832;28;20431;-63
2022/09/18 04:10:54;;;;;;;5.93;2.37;;;;;;;10.16;88.62;99918.44;5103713;28;20505;-63
2022/09/18 04:13:20;;;;;;;8.97;2.23;;;;;;;10.12;89.10;99922.41;5108077;28;20800;-64
2022/09/18 04:15:49;;;;;;;8.53;3.37;;;;;;;10.17;88.68;99928.16;5094923;28;20487;-64
2022/09/18 04:18:15;;;;;;;10.70;2.90;;;;;;;10.10;88.75;99928.88;5101646;28;20769;-63
2022/09/18 04:20:42;;;;;;;10.60;2.47;;;;;;;10.10;88.65;99924.41;5102147;28;21091;-64
2022/09/18 04:23:10;;;;;;;10.57;2.37;;;;;;;10.17;88.40;99925.50;5123349;28;20458;-64
2022/09/18 04:25:40;;;;;;;5.67;2.27;;;;;;;10.16;88.59;99918.44;5116432;28;20538;-64
2022/09/18 04:28:06;;;;;;;5.77;2.53;;;;;;;10.17;88.84;99930.84;5118894;28;20449;-64
2022/09/18 04:30:33;;;;;;;10.40;2.20;;;;;;;10.13;88.46;99923.25;5106695;28;20486;-63
2022/09/18 04:33:00;;;;;;;5.60;3.20;;;;;;;10.17;88.55;99921.97;5102806;28;20490;-63
2022/09/18 04:35:26;;;;;;;5.67;2.37;;;;;;;10.16;88.75;99929.13;5102739;28;20541;-63
2022/09/18 04:37:53;;;;;;;5.13;2.40;;;;;;;10.26;88.14;99918.44;5102868;28;20507;-63
2022/09/18 04:40:20;;;;;;;9.00;2.37;;;;;;;10.28;88.39;99912.94;5101326;28;20497;-64
2022/09/18 04:42:48;;;;;;;4.90;1.90;;;;;;;10.21;88.64;99919.84;5121096;28;20438;-63
2022/09/18 04:45:15;;;;;;;6.63;2.90;;;;;;;10.24;88.47;99906.19;5103440;28;20471;-63
2022/09/18 04:47:44;;;;;;;10.77;2.43;;;;;;;10.13;88.50;99910.72;5102236;28;20466;-64
2022/09/18 04:50:10;;;;;;;5.67;2.10;;;;;;;10.23;88.75;99912.53;5114311;28;20468;-63
2022/09/18 04:52:37;;;;;;;12.57;3.77;;;;;;;10.13;88.54;99902.72;5118261;28;20475;-63
2022/09/18 04:55:04;;;;;;;11.50;3.10;;;;;;;10.08;88.92;99902.31;5113143;28;20443;-63
2022/09/18 04:57:31;;;;;;;5.43;2.87;;;;;;;10.10;88.85;99913.72;5112301;28;20514;-63
2022/09/18 04:59:59;;;;;;;9.53;2.17;;;;;;;10.23;88.65;99905.34;5101193;28;20501;-64
2022/09/18 05:02:25;;;;;;;20.33;2.97;;;;;;;10.30;88.28;99909.13;5100728;28;20509;-63
2022/09/18 05:04:52;;;;;;;10.63;1.87;;;;;;;10.39;87.89;99911.94;5101786;28;20443;-63
2022/09/18 05:07:19;;;;;;;5.50;2.10;;;;;;;10.32;88.78;99909.84;5097300;28;20491;-63
2022/09/18 05:09:46;;;;;;;7.30;2.30;;;;;;;10.36;88.24;99908.56;5099551;28;20423;-63
2022/09/18 05:12:12;;;;;;;6.23;2.33;;;;;;;10.47;87.72;99910.19;5109235;28;20498;-63
2022/09/18 05:14:39;;;;;;;14.63;2.47;;;;;;;10.50;87.47;99909.91;5122144;28;20426;-63
2022/09/18 05:17:07;;;;;;;7.77;2.30;;;;;;;10.56;87.24;99911.16;5107178;28;20474;-63
2022/09/18 05:19:34;;;;;;;6.63;2.13;;;;;;;10.57;87.06;99903.97;5116675;28;20521;-63
2022/09/18 05:22:00;;;;;;;8.27;1.90;;;;;;;10.70;86.69;99913.31;5109429;28;20524;-64
2022/09/18 05:24:27;;;;;;;12.17;2.30;;;;;;;10.69;86.80;99906.28;5101346;28;20470;-64
2022/09/18 05:26:53;;;;;;;8.20;2.50;;;;;;;10.78;86.44;99909.03;5100614;28;20536;-63
2022/09/18 05:29:20;;;;;;;5.60;1.93;;;;;;;10.81;85.87;99912.25;5121373;28;21159;-64
2022/09/18 05:31:47;;;;;;;7.27;2.13;;;;;;;10.88;85.61;99913.34;5119531;28;20477;-64
2022/09/18 05:34:15;;;;;;;6.00;2.33;;;;;;;10.72;86.01;99907.81;5121212;28;20434;-64
2022/09/18 05:36:42;;;;;;;9.10;1.97;;;;;;;10.85;85.58;99905.63;5117609;28;20599;-63
2022/09/18 05:39:08;;;;;;;9.80;2.47;;;;;;;10.71;86.62;99898.97;5110532;28;20476;-65
2022/09/18 05:41:35;;;;;;;2.50;1.60;;;;;;;10.81;86.26;99900.72;5100250;28;20494;-64
2022/09/18 05:44:02;;;;;;;12.83;2.83;;;;;;;10.78;86.62;99903.69;5111855;28;20501;-63
2022/09/18 05:46:29;;;;;;;6.07;2.20;;;;;;;10.73;86.80;99896.97;5104862;28;20519;-62
2022/09/18 05:48:55;;;;;;;5.90;1.90;;;;;;;10.79;87.42;99900.88;5110903;28;20446;-63
2022/09/18 05:51:23;;;;;;;5.37;2.10;;;;;;;10.60;87.93;99890.31;5099957;28;20499;-63
2022/09/18 05:53:50;;;;;;;6.60;2.30;;;;;;;10.79;87.78;99898.19;5098996;28;20448;-64
2022/09/18 05:56:17;;;;;;;7.13;2.03;;;;;;;10.95;87.72;99902.03;5099679;28;20475;-63
2022/09/18 05:58:44;;;;;;;7.10;2.03;;;;;;;10.78;88.02;99911.72;5100801;28;20506;-63
2022/09/18 06:01:13;;;;;;;7.30;2.70;;;;;;;10.69;88.68;99918.81;5095326;28;20734;-63
2022/09/18 06:03:39;;;;;;;5.57;2.57;;;;;;;10.79;89.16;99918.75;5098346;28;20446;-63
2022/09/18 06:06:07;;;;;;;6.33;2.43;;;;;;;10.55;90.49;99904.09;5100935;28;20482;-63
2022/09/18 06:08:35;;;;;;;5.60;2.37;;;;;;;10.57;91.32;99912.81;5095147;28;20439;-63
2022/09/18 06:11:02;;;;;;;6.03;2.20;;;;;;;10.60;91.79;99903.66;5099940;28;20538;-62
2022/09/18 06:13:29;;;;;;;5.83;2.63;;;;;;;10.55;92.04;99896.09;5099855;28;20456;-63
2022/09/18 06:15:56;;;;;;;5.60;1.80;;;;;;;10.51;92.52;99900.88;5095433;28;20541;-62
2022/09/18 06:18:23;;;;;;;7.40;2.07;;;;;;;10.55;93.02;99898.75;5099458;28;20499;-63
2022/09/18 06:20:53;;;;;;;5.23;1.87;;;;;;;10.49;92.74;99886.84;5099505;28;20482;-63
2022/09/18 06:23:20;;;;;;;6.13;1.77;;;;;;;10.60;92.34;99901.00;5114170;28;20427;-62
2022/09/18 06:25:48;;;;;;;4.77;2.03;;;;;;;10.51;92.91;99900.88;5120144;28;20473;-62
2022/09/18 06:28:14;;;;;;;5.23;2.20;;;;;;;10.61;92.72;99905.38;5119901;28;20525;-62
2022/09/18 06:30:41;;;;;;;6.00;2.40;;;;;;;10.61;92.94;99900.84;5088064;28;20468;-62
2022/09/18 06:33:10;;;;;;;10.57;2.80;;;;;;;10.61;93.01;99910.72;5110457;28;20467;-62
2022/09/18 06:35:38;;;;;;;6.70;2.43;;;;;;;10.60;93.31;99907.16;5097332;28;20996;-63
2022/09/18 06:38:06;;;;;;;6.23;2.00;;;;;;;10.68;92.95;99907.28;5099905;28;21001;-63
2022/09/18 06:40:34;;;;;;;4.67;2.20;;;;;;;10.72;92.00;99905.13;5099171;28;20570;-63
2022/09/18 06:43:03;;;;;;;5.73;2.47;;;;;;;10.89;91.75;99900.81;5103469;28;20523;-63
2022/09/18 06:45:30;;;;;;;7.33;2.67;;;;;;;10.97;90.92;99908.06;5114316;28;20487;-63
2022/09/18 06:48:00;;;;;;;8.87;2.90;;;;;;;10.97;90.92;99898.22;5110109;28;20517;-63
2022/09/18 06:50:28;;;;;;;7.13;2.80;;;;;;;11.05;90.59;99905.50;5100664;28;20489;-63
2022/09/18 06:52:55;;;;;;;10.50;2.80;;;;;;;11.02;90.66;99909.28;5094246;28;20447;-63
2022/09/18 06:55:22;;;;;;;7.20;2.50;;;;;;;11.15;90.38;99903.59;5098877;28;20969;-63
2022/09/18 06:57:53;;;;;;;8.40;2.97;;;;;;;11.18;89.57;99910.44;5100091;28;20822;-63
2022/09/18 07:00:22;;;;;;;4.90;2.23;;;;;;;11.23;89.22;99901.00;5105851;28;20505;-63
2022/09/18 07:02:55;;;;;;;5.53;2.67;;;;;;;11.17;89.30;99901.59;5119211;28;20920;-63
2022/09/18 07:05:21;;;;;;;6.87;2.40;;;;;;;11.33;88.82;99900.88;5102578;28;20439;-63
2022/09/18 07:07:48;;;;;;;5.97;2.33;;;;;;;11.37;88.52;99901.41;5099387;28;20534;-63
2022/09/18 07:10:15;;;;;;;6.47;2.40;;;;;;;11.29;88.80;99900.34;5107572;28;20451;-63
2022/09/18 07:12:45;;;;;;;9.17;2.90;;;;;;;11.23;88.76;99900.13;5088544;28;20443;-62
2022/09/18 07:15:12;;;;;;;10.37;2.20;;;;;;;11.19;89.18;99901.44;5118767;28;20508;-63
2022/09/18 07:17:40;;;;;;;6.50;2.60;;;;;;;11.34;88.53;99912.44;5094869;28;20440;-63
2022/09/18 07:20:08;;;;;;;6.60;2.60;;;;;;;11.34;87.66;99893.72;5097872;28;20467;-62
2022/09/18 07:22:35;;;;;;;6.17;2.20;;;;;;;11.58;86.99;99893.03;5093198;28;20469;-63
2022/09/18 07:25:02;;;;;;;8.20;2.13;;;;;;;11.74;86.28;99900.38;5092720;28;20711;-63
2022/09/18 07:27:29;;;;;;;7.47;1.97;;;;;;;11.75;85.90;99902.03;5100005;28;20475;-63
2022/09/18 07:29:56;;;;;;;13.47;2.47;;;;;;;11.81;85.17;99893.41;5118320;28;20542;-63
2022/09/18 07:32:22;;;;;;;3.37;1.80;;;;;;;12.08;84.32;99899.59;5087032;28;20480;-63
2022/09/18 07:34:50;;;;;;;9.97;3.47;;;;;;;11.89;83.89;99890.78;5102030;28;20932;-64
2022/09/18 07:37:18;;;;;;;4.83;1.40;;;;;;;12.00;84.28;99895.88;5099012;28;21055;-65
2022/09/18 07:39:44;;;;;;;7.30;2.20;;;;;;;12.19;84.52;99894.81;5098958;28;20484;-65
2022/09/18 07:42:11;;;;;;;5.70;1.87;;;;;;;11.91;84.61;99890.63;5098189;28;20493;-65
2022/09/18 07:44:38;;;;;;;7.20;2.33;;;;;;;12.02;84.51;99879.66;5097276;28;20470;-64
2022/09/18 07:47:05;;;;;;;4.03;1.93;;;;;;;11.92;84.71;99881.59;5109774;28;20477;-65
2022/09/18 07:49:32;;;;;;;9.10;1.90;;;;;;;11.87;84.60;99882.03;5108303;28;20454;-65
2022/09/18 07:52:01;;;;;;;4.87;1.73;;;;;;;12.06;83.94;99891.72;5100924;28;20470;-65
2022/09/18 07:54:28;;;;;;;4.87;1.50;;;;;;;12.20;83.54;99891.16;5117752;28;20982;-65
2022/09/18 07:56:55;;;;;;;4.13;1.60;;;;;;;12.32;83.28;99886.31;5118722;28;20470;-65
2022/09/18 07:59:21;;;;;;;6.90;1.77;;;;;;;12.14;82.90;99891.78;5106551;28;20473;-65
2022/09/18 08:01:50;;;;;;;4.90;1.30;;;;;;;12.31;82.85;99891.84;5100414;28;20499;-65
2022/09/18 08:04:16;;;;;;;6.40;2.00;;;;;;;12.28;83.30;99895.69;5091923;28;20446;-65
2022/09/18 08:06:43;;;;;;;3.97;1.77;;;;;;;12.22;84.19;99902.53;5121999;28;20481;-65
2022/09/18 08:09:11;;;;;;;4.40;1.30;;;;;;;11.98;85.01;99897.06;5121635;28;20459;-65
2022/09/18 08:11:38;;;;;;;2.10;1.30;;;;;;;12.00;85.31;99895.88;5116254;28;20519;-65
2022/09/18 08:14:04;;;;;;;4.47;2.10;;;;;;;12.16;84.17;99897.81;5109046;28;20439;-65
2022/09/18 08:16:31;;;;;;;3.67;1.50;;;;;;;12.43;83.75;99894.09;5107038;28;20474;-65
2022/09/18 08:18:58;;;;;;;5.47;1.50;;;;;;;11.83;85.32;99899.44;5121785;28;20438;-64
2022/09/18 08:21:24;;;;;;;6.20;1.63;;;;;;;11.66;86.07;99907.34;5086410;28;20483;-65
2022/09/18 08:23:51;;;;;;;4.70;1.53;;;;;;;11.71;86.19;99906.03;5113403;28;20439;-65
2022/09/18 08:26:19;;;;;;;5.13;1.10;;;;;;;11.87;85.98;99906.16;5107263;28;20506;-65
2022/09/18 08:28:47;;;;;;;4.17;1.40;;;;;;;12.09;85.65;99909.34;5120091;28;20454;-65
2022/09/18 08:31:13;;;;;;;2.83;1.50;;;;;;;11.94;86.06;99917.94;5120258;28;20498;-65
2022/09/18 08:33:40;;;;;;;2.90;0.73;;;;;;;11.72;86.83;99903.22;5110800;28;20454;-65
2022/09/18 08:36:08;;;;;;;4.53;1.43;;;;;;;11.64;87.69;99903.97;5102774;28;20467;-65
2022/09/18 08:38:34;;;;;;;5.93;1.57;;;;;;;11.73;87.91;99910.22;5101813;28;20427;-66
2022/09/18 08:41:10;;;;;;;6.20;1.50;;;;;;;11.82;86.73;99911.13;5106568;28;20482;-65
2022/09/18 08:44:01;;;;;;;2.80;1.30;;;;;;;11.71;85.77;99906.88;5101677;28;20549;-65
2022/09/18 08:46:32;;;;;;;2.53;1.40;;;;;;;11.93;85.79;99910.09;5112883;28;20473;-65
2022/09/18 08:49:07;;;;;;;4.90;1.17;;;;;;;11.87;85.50;99909.69;5104423;28;21260;-65
2022/09/18 08:51:38;;;;;;;6.90;2.00;;;;;;;12.08;84.09;99908.47;5099366;28;20474;-66
2022/09/18 08:54:17;;;;;;;2.50;1.70;;;;;;;12.13;83.31;99903.47;5099656;28;20460;-65
2022/09/18 08:56:45;;;;;;;3.20;1.13;;;;;;;11.86;84.73;99910.66;5078123;28;20511;-64
2022/09/18 08:59:16;;;;;;;2.10;1.40;;;;;;;11.77;85.36;99906.25;5081039;28;20447;-64
2022/09/18 09:01:47;;;;;;;6.10;1.47;;;;;;;11.59;85.16;99911.63;5095386;28;20489;-65
2022/09/18 09:04:18;;;;;;;4.40;1.60;;;;;;;11.75;84.95;99910.09;5101280;28;20424;-64
2022/09/18 09:06:59;;;;;;;2.10;1.10;;;;;;;11.49;86.50;99914.44;5093533;28;20487;-64
2022/09/18 09:09:38;;;;;;;3.50;1.27;;;;;;;11.65;86.59;99907.53;5098257;28;20447;-64
2022/09/18 09:12:13;;;;;;;2.60;1.50;;;;;;;11.41;86.65;99909.00;5105323;28;20490;-62
2022/09/18 09:14:50;;;;;;;4.07;1.63;;;;;;;11.54;87.50;99905.06;5093451;28;20479;-62
2022/09/18 09:17:21;;;;;;;3.60;1.63;;;;;;;11.50;87.39;99905.38;5104334;28;20513;-62
2022/09/18 09:19:53;;;;;;;6.37;1.60;;;;;;;11.58;87.43;99909.97;5102023;28;20451;-66
2022/09/18 09:22:27;;;;;;;2.70;1.23;;;;;;;11.57;87.30;99905.59;5101473;28;20529;-66
2022/09/18 09:25:01;;;;;;;3.67;1.60;;;;;;;11.59;87.27;99902.78;5120892;28;20429;-71
2022/09/18 09:27:38;;;;;;;2.87;1.40;;;;;;;11.52;87.20;99909.75;5120627;28;20472;-69
2022/09/18 09:30:13;;;;;;;3.10;1.53;;;;;;;11.62;87.01;99900.63;5120012;28;20422;-67
2022/09/18 09:32:45;;;;;;;2.17;1.27;;;;;;;11.58;86.84;99898.41;5115279;28;20455;-70
2022/09/18 09:35:22;;;;;;;4.60;1.87;;;;;;;11.47;86.99;99903.03;5111610;28;20495;-68
2022/09/18 09:37:50;;;;;;;4.00;1.80;;;;;;;11.65;87.03;99903.00;5120373;28;20450;-68
2022/09/18 09:40:19;;;;;;;3.03;1.70;;;;;;;11.62;86.78;99905.16;5113135;28;20544;-67
2022/09/18 09:42:49;;;;;;;4.47;1.87;;;;;;;11.68;86.94;99904.50;5100928;28;20454;-67
2022/09/18 09:45:23;;;;;;;3.33;1.83;;;;;;;11.94;85.70;99904.53;5104264;28;20550;-62
2022/09/18 09:47:54;;;;;;;5.20;1.80;;;;;;;11.69;84.82;99903.53;5105970;28;20495;-63
2022/09/18 09:50:39;;;;;;;9.27;2.20;;;;;;;11.94;84.80;99901.03;5109103;28;20453;-68
2022/09/18 09:53:10;;;;;;;5.57;1.97;;;;;;;11.93;84.25;99905.56;5105569;28;20457;-64
2022/09/18 09:55:41;;;;;;;5.73;1.80;;;;;;;11.86;85.39;99896.44;5105219;28;20481;-65
2022/09/18 09:58:16;;;;;;;4.93;2.07;;;;;;;11.82;85.53;99901.28;5116651;28;20462;-64
2022/09/18 10:00:46;;;;;;;3.67;1.70;;;;;;;11.90;85.43;99900.47;5104579;28;20503;-65
2022/09/18 10:03:46;;;;;;;3.13;1.30;;;;;;;11.58;84.68;99888.56;5098844;28;21005;-67
2022/09/18 10:06:23;;;;;;;3.40;1.20;;;;;;;11.80;85.04;99887.19;5100365;28;20896;-63
2022/09/18 10:08:53;;;;;;;4.00;1.43;;;;;;;11.67;85.29;99898.31;5097527;28;20468;-64
2022/09/18 10:11:20;;;;;;;2.23;1.40;;;;;;;11.81;85.30;99893.41;5100553;28;20475;-63
2022/09/18 10:13:50;;;;;;;4.10;1.77;;;;;;;11.94;84.51;99893.00;5102212;28;20516;-63
2022/09/18 10:16:21;;;;;;;2.30;1.00;;;;;;;12.10;83.31;99892.25;5103293;28;20459;-63
2022/09/18 10:18:49;;;;;;;1.87;1.30;;;;;;;12.19;84.25;99902.03;5086537;28;20447;-64
2022/09/18 10:21:17;;;;;;;4.27;1.63;;;;;;;11.99;83.79;99896.03;5107544;28;20554;-64
2022/09/18 10:23:46;;;;;;;3.60;1.30;;;;;;;11.63;85.52;99905.00;5101324;28;20455;-64
2022/09/18 10:26:15;;;;;;;4.60;1.30;;;;;;;12.09;84.73;99891.41;5108967;28;21120;-65
2022/09/18 10:28:42;;;;;;;3.43;1.20;;;;;;;12.14;84.86;99888.25;5105132;28;20446;-64
2022/09/18 10:31:11;;;;;;;5.13;1.67;;;;;;;12.41;84.04;99879.16;5099278;28;20909;-65
2022/09/18 10:33:40;;;;;;;2.53;1.30;;;;;;;12.39;84.11;99870.44;5098754;28;20500;-65
2022/09/18 10:36:18;;;;;;;2.50;1.33;;;;;;;12.30;83.85;99871.41;5098096;28;20532;-65
2022/09/18 10:38:45;;;;;;;2.03;1.17;;;;;;;12.42;82.51;99860.22;5107114;28;20446;-65
2022/09/18 10:41:27;;;;;;;2.13;1.33;;;;;;;12.25;84.07;99863.84;5102171;28;20506;-65
2022/09/18 10:43:58;;;;;;;2.33;1.40;;;;;;;12.49;84.04;99875.69;5104879;28;20471;-63
2022/09/18 10:46:27;;;;;;;6.70;1.40;;;;;;;12.35;82.95;99864.56;5110020;28;20991;-63
2022/09/18 10:48:57;;;;;;;3.07;1.00;;;;;;;12.30;82.99;99860.69;5111527;28;20608;-63
2022/09/18 10:51:27;;;;;;;4.20;1.33;;;;;;;12.48;83.31;99868.63;5114486;28;20480;-63
2022/09/18 10:54:03;;;;;;;7.23;1.43;;;;;;;12.38;82.40;99866.94;5104342;28;20458;-62
2022/09/18 10:56:30;;;;;;;3.57;1.30;;;;;;;12.69;82.62;99870.88;5099477;28;20513;-63
2022/09/18 10:58:57;;;;;;;4.30;1.03;;;;;;;12.34;83.24;99856.69;5109514;28;20450;-64
2022/09/18 11:01:24;;;;;;;1.77;0.90;;;;;;;11.92;84.28;99876.25;5118053;28;20473;-64
2022/09/18 11:04:01;;;;;;;4.40;1.40;;;;;;;12.02;84.55;99869.78;5119685;28;20430;-64
2022/09/18 11:06:29;;;;;;;2.00;1.17;;;;;;;12.00;84.45;99865.59;5109544;28;20475;-64
2022/09/18 11:08:59;;;;;;;3.47;1.10;;;;;;;12.02;84.33;99866.25;5118533;28;20442;-64
2022/09/18 11:11:27;;;;;;;3.60;0.70;;;;;;;11.94;84.83;99863.53;5118504;28;20463;-64
2022/09/18 11:13:58;;;;;;;2.70;1.13;;;;;;;11.81;85.20;99871.97;5113145;28;20442;-64
2022/09/18 11:16:26;;;;;;;1.23;0.83;;;;;;;11.96;85.94;99864.19;5088694;28;20471;-64
2022/09/18 11:19:06;;;;;;;3.13;1.20;;;;;;;12.13;84.33;99873.19;5099116;28;20537;-64
2022/09/18 11:21:33;;;;;;;1.20;1.10;;;;;;;12.14;85.06;99873.03;5095681;28;20486;-63
2022/09/18 11:24:04;;;;;;;3.50;1.07;;;;;;;12.03;85.12;99873.28;5102483;28;20468;-63
2022/09/18 11:26:31;;;;;;;1.70;1.00;;;;;;;11.98;85.51;99868.41;5098638;28;20478;-63
2022/09/18 11:29:01;;;;;;;3.20;1.10;;;;;;;11.94;85.27;99871.56;5103012;28;20477;-63
2022/09/18 11:31:38;;;;;;;2.50;0.90;;;;;;;11.84;86.19;99879.69;5082916;28;20485;-62
2022/09/18 11:34:16;;;;;;;1.27;0.90;;;;;;;11.91;85.82;99877.22;5105799;28;20973;-63
2022/09/18 11:36:47;;;;;;;1.60;1.00;;;;;;;12.14;84.23;99883.75;5103262;28;20523;-63
2022/09/18 11:39:18;;;;;;;2.07;0.80;;;;;;;12.16;82.72;99886.25;5113607;28;20980;-63
2022/09/18 11:41:48;;;;;;;1.23;0.77;;;;;;;12.13;83.20;99891.94;5102963;28;20470;-64
2022/09/18 11:44:17;;;;;;;1.50;1.10;;;;;;;12.02;84.16;99890.38;5119864;28;20595;-63